This is the latest recevied weather packets stored in our database for station/object KD2DXJ. If no packets are shown the sender has not sent any weather packets the latest 10 day(s).
| Time | Temp. | Humidity | Pressure | Rain* | Wind** | Luminosity | Snow |
|---|---|---|---|---|---|---|---|
| 1777999447 | 16.11° C | 87% | 1002.6 hPa | 3.05 mm | - | 72 W/m² | - |
| 1777999145 | 17.78° C | 84% | 1002.5 hPa | 1.27 mm | - | 31 W/m² | - |
| 1777998844 | 19.44° C | 68% | 1002.1 hPa | 0 mm | - | 24 W/m² | - |
| 1777998542 | 20° C | 65% | 1001.8 hPa | 0 mm | - | 35 W/m² | - |
| 1777998237 | 20° C | 65% | 1002 hPa | 0 mm | - | 36 W/m² | - |
| 1777997935 | 20° C | 63% | 1002 hPa | 0 mm | - | 46 W/m² | - |
| 1777997631 | 20° C | 64% | 1001.7 hPa | 0 mm | - | 51 W/m² | - |
| 1777997329 | 20° C | 63% | 1002 hPa | 0 mm | - | 75 W/m² | - |
| 1777997027 | 20° C | 64% | 1001.8 hPa | 0 mm | - | 53 W/m² | - |
| 1777996723 | 20° C | 64% | 1001.8 hPa | 0 mm | - | 53 W/m² | - |
| 1777996419 | 20° C | 64% | 1001.7 hPa | 0 mm | - | 81 W/m² | - |
| 1777996116 | 20° C | 64% | 1001.9 hPa | 0 mm | - | 66 W/m² | - |
| 1777995812 | 20.56° C | 65% | 1002 hPa | 0 mm | - | 108 W/m² | - |
| 1777995508 | 20.56° C | 63% | 1002 hPa | 0 mm | - | 240 W/m² | - |
| 1777995206 | 20° C | 64% | 1002 hPa | 0 mm | - | 182 W/m² | - |
| 1777994903 | 20.56° C | 63% | 1002.1 hPa | 0 mm | - | 142 W/m² | - |
| 1777994600 | 20.56° C | 64% | 1002.1 hPa | 0 mm | - | 196 W/m² | - |
| 1777994300 | 20.56° C | 62% | 1002.1 hPa | 0 mm | - | 172 W/m² | - |
| 1777993997 | 20.56° C | 61% | 1001.7 hPa | 0 mm | - | 162 W/m² | - |
| 1777993694 | 20.56° C | 59% | 1001.6 hPa | 0 mm | - | 172 W/m² | - |
| 1777993391 | 20.56° C | 62% | 1001.4 hPa | 0 mm | - | 127 W/m² | - |
| 1777993085 | 21.11° C | 62% | 1001.4 hPa | 0 mm | - | 145 W/m² | - |
| 1777992784 | 21.11° C | 60% | 1001.3 hPa | 0 mm | - | 142 W/m² | - |
| 1777992481 | 21.11° C | 61% | 1001 hPa | 0 mm | - | 184 W/m² | - |
| 1777992180 | 21.67° C | 59% | 1001.3 hPa | 0 mm | - | 199 W/m² | - |
* Rain latest hour (hover to see other rain measurements)
** Current wind speed in m/s (hover to see current wind gust speed)